Time;durP1;ratioP1;P1;durP2;ratioP2;P2;SDS_P1;SDS_P2;PMS_P1;PMS_P2;Temp;Humidity;BMP_temperature;BMP_pressure;BME280_temperature;BME280_humidity;BME280_pressure;Samples;Min_cycle;Max_cycle;Signal;HPM_P1;HPM_P2
2022/01/19 00:00:23;;;;;;;3.28;2.20;;;;;;;16.92;60.32;100273.56;3178286;27;20043;-51
2022/01/19 00:01:55;;;;;;;1.55;1.45;;;;;;;16.92;60.35;100281.63;3178133;27;20051;-52
2022/01/19 00:03:31;;;;;;;3.10;2.03;;;;;;;16.90;60.35;100280.91;3176859;27;20043;-50
2022/01/19 00:05:04;;;;;;;2.65;1.88;;;;;;;16.88;60.43;100285.56;3176415;27;20755;-53
2022/01/19 00:06:36;;;;;;;2.00;1.80;;;;;;;16.87;60.45;100290.09;3176047;27;20432;-51
2022/01/19 00:08:07;;;;;;;2.03;1.90;;;;;;;16.87;60.54;100289.25;3177218;27;20051;-51
2022/01/19 00:09:43;;;;;;;2.38;1.80;;;;;;;16.86;60.32;100295.63;3179316;27;20129;-49
2022/01/19 00:11:16;;;;;;;2.85;1.90;;;;;;;16.84;60.48;100289.56;3176916;27;20047;-51
2022/01/19 00:12:48;;;;;;;2.30;2.10;;;;;;;16.81;60.47;100290.72;3178210;27;20100;-52
2022/01/19 00:14:21;;;;;;;2.25;1.65;;;;;;;16.81;60.36;100296.06;3178652;27;20846;-50
2022/01/19 00:15:54;;;;;;;2.75;1.70;;;;;;;16.80;60.50;100293.53;3176344;27;20055;-49
2022/01/19 00:17:25;;;;;;;3.17;2.08;;;;;;;16.80;60.43;100293.53;3178672;27;20046;-52
2022/01/19 00:18:58;;;;;;;3.10;2.20;;;;;;;16.78;60.54;100287.50;3178262;27;20688;-49
2022/01/19 00:20:31;;;;;;;2.05;1.85;;;;;;;16.77;60.43;100283.13;3177628;27;20395;-50
2022/01/19 00:22:03;;;;;;;2.53;1.80;;;;;;;16.75;60.42;100286.78;3177351;27;20047;-53
2022/01/19 00:23:35;;;;;;;2.95;2.40;;;;;;;16.74;60.51;100281.56;3178361;27;20039;-51
2022/01/19 00:25:10;;;;;;;3.95;2.38;;;;;;;16.72;60.53;100283.56;3174958;27;20556;-50
2022/01/19 00:26:42;;;;;;;2.20;2.00;;;;;;;16.72;60.67;100280.88;3177700;27;20047;-51
2022/01/19 00:28:17;;;;;;;2.13;1.92;;;;;;;16.69;60.61;100278.50;3178445;27;20509;-48
2022/01/19 00:29:49;;;;;;;1.98;1.65;;;;;;;16.68;60.51;100279.47;3178343;27;20046;-53
2022/01/19 00:31:20;;;;;;;2.45;2.10;;;;;;;16.68;60.61;100284.84;3176565;27;20096;-51
2022/01/19 00:32:55;;;;;;;3.17;2.20;;;;;;;16.67;60.56;100281.31;3174676;27;20711;-52
2022/01/19 00:34:29;;;;;;;2.95;2.08;;;;;;;16.63;60.68;100274.59;3178589;27;20047;-53
2022/01/19 00:36:13;;;;;;;2.75;1.95;;;;;;;16.62;60.61;100270.22;3177952;27;20134;-51
2022/01/19 00:37:48;;;;;;;2.20;2.00;;;;;;;16.61;60.70;100273.91;3171502;27;20505;-52
2022/01/19 00:39:20;;;;;;;3.22;2.20;;;;;;;16.61;60.64;100276.56;3174283;27;20042;-51
2022/01/19 00:40:57;;;;;;;3.35;2.28;;;;;;;16.59;60.60;100270.50;3177034;27;20062;-51
2022/01/19 00:42:29;;;;;;;2.40;2.03;;;;;;;16.58;60.63;100268.84;3178579;27;20070;-52
2022/01/19 00:44:03;;;;;;;2.60;1.80;;;;;;;16.58;60.76;100268.00;3178797;27;20651;-51
2022/01/19 00:45:43;;;;;;;2.50;2.05;;;;;;;16.57;60.57;100263.63;3178487;27;20077;-49
2022/01/19 00:47:16;;;;;;;2.10;1.90;;;;;;;16.53;60.63;100263.09;3173759;27;20047;-50
2022/01/19 00:48:50;;;;;;;3.25;2.17;;;;;;;16.52;60.75;100266.78;3178039;27;20051;-49
2022/01/19 00:50:26;;;;;;;2.45;1.90;;;;;;;16.51;60.75;100278.47;3179131;27;20058;-52
2022/01/19 00:51:58;;;;;;;2.40;1.98;;;;;;;16.50;60.64;100263.41;3177830;27;20055;-51
2022/01/19 00:53:33;;;;;;;2.85;2.38;;;;;;;16.49;60.73;100256.31;3178140;27;20039;-52
2022/01/19 00:55:07;;;;;;;2.08;1.92;;;;;;;16.46;60.74;100253.94;3177897;27;20519;-51
2022/01/19 00:56:39;;;;;;;2.58;1.75;;;;;;;16.46;60.75;100253.94;3176300;27;20043;-52
2022/01/19 00:58:10;;;;;;;2.58;2.08;;;;;;;16.44;60.73;100253.28;3170348;27;20103;-51
2022/01/19 00:59:42;;;;;;;2.97;2.50;;;;;;;16.45;60.68;100249.59;3178799;27;20047;-52
2022/01/19 01:01:16;;;;;;;2.10;1.63;;;;;;;16.43;60.72;100246.22;3174311;27;20180;-51
2022/01/19 01:02:48;;;;;;;2.30;2.10;;;;;;;16.42;60.77;100239.19;3178055;27;20050;-50
2022/01/19 01:04:22;;;;;;;2.03;1.80;;;;;;;16.41;60.91;100240.16;3178408;27;20047;-50
2022/01/19 01:05:56;;;;;;;2.88;2.08;;;;;;;16.39;60.62;100234.97;3173684;27;20043;-50
2022/01/19 01:07:30;;;;;;;4.60;2.10;;;;;;;16.38;60.81;100244.00;3177813;27;20043;-50
2022/01/19 01:09:02;;;;;;;2.80;1.58;;;;;;;16.37;60.66;100254.88;3176831;27;20739;-50
2022/01/19 01:10:41;;;;;;;2.60;2.17;;;;;;;16.35;60.80;100256.84;3178033;27;20055;-48
2022/01/19 01:12:20;;;;;;;3.13;2.22;;;;;;;16.34;60.72;100260.53;3177543;27;20123;-51
2022/01/19 01:15:49;;;;;;;2.10;1.92;;;;;;;16.30;61.00;100276.88;3176114;27;20039;-50
2022/01/19 01:19:14;;;;;;;3.03;1.88;;;;;;;16.26;60.98;100288.03;3177910;27;20134;-49
2022/01/19 01:20:47;;;;;;;1.90;1.80;;;;;;;16.25;60.87;100286.34;3177347;27;20051;-52
2022/01/19 01:22:23;;;;;;;2.10;1.63;;;;;;;16.23;60.99;100283.81;3175935;27;20042;-50
2022/01/19 01:23:56;;;;;;;2.28;2.05;;;;;;;16.23;61.09;100283.81;3175683;27;20801;-50
2022/01/19 01:25:30;;;;;;;3.00;1.75;;;;;;;16.23;61.03;100286.50;3177688;27;20491;-50
2022/01/19 01:27:02;;;;;;;2.95;1.98;;;;;;;16.21;60.90;100272.41;3177768;27;20695;-50
2022/01/19 01:28:36;;;;;;;2.42;2.13;;;;;;;16.21;60.89;100272.41;3176065;27;20039;-53
2022/01/19 01:30:10;;;;;;;3.38;2.45;;;;;;;16.20;61.08;100268.06;3171944;27;20542;-53
2022/01/19 01:31:44;;;;;;;2.13;1.70;;;;;;;16.18;60.93;100263.84;3178547;27;20062;-50
2022/01/19 01:33:17;;;;;;;3.80;2.13;;;;;;;16.17;60.94;100271.03;3176490;27;20050;-53
2022/01/19 01:34:49;;;;;;;2.90;2.00;;;;;;;16.15;61.16;100267.66;3176371;27;20120;-51
2022/01/19 01:36:24;;;;;;;2.17;1.80;;;;;;;16.14;61.16;100265.13;3176771;27;20046;-52
2022/01/19 01:37:58;;;;;;;2.50;2.00;;;;;;;16.14;61.02;100265.97;3177842;27;20055;-48
2022/01/19 01:39:29;;;;;;;2.85;2.40;;;;;;;16.11;61.13;100266.28;3176076;27;20047;-52
2022/01/19 01:41:01;;;;;;;3.03;2.00;;;;;;;16.11;61.11;100260.91;3177185;27;20043;-51
2022/01/19 01:42:33;;;;;;;2.92;2.15;;;;;;;16.09;61.17;100255.69;3178580;27;20051;-53
2022/01/19 01:44:05;;;;;;;2.13;1.98;;;;;;;16.09;61.20;100260.22;3177389;27;20054;-50
2022/01/19 01:45:42;;;;;;;2.60;2.20;;;;;;;16.07;61.05;100255.03;3176601;27;20665;-47
2022/01/19 01:47:17;;;;;;;1.95;1.55;;;;;;;16.08;61.23;100263.88;3177394;27;20047;-50
2022/01/19 01:48:49;;;;;;;3.72;2.45;;;;;;;16.06;61.28;100253.31;3175006;27;20031;-49
2022/01/19 01:54:01;;;;;;;2.03;1.83;;;;;;;16.01;61.25;100252.06;3177442;27;20038;-49
2022/01/19 01:55:33;;;;;;;2.50;1.85;;;;;;;16.01;61.06;100244.03;3176956;27;20058;-52
2022/01/19 01:57:08;;;;;;;3.13;1.75;;;;;;;16.00;61.21;100239.69;3175107;27;20043;-50
2022/01/19 01:58:46;;;;;;;2.22;1.75;;;;;;;15.98;61.11;100239.00;3173824;27;20046;-53
2022/01/19 02:00:24;;;;;;;2.22;1.65;;;;;;;15.97;61.08;100231.97;3177499;27;20047;-50
2022/01/19 02:01:56;;;;;;;2.80;2.00;;;;;;;15.98;61.17;100234.47;3177680;27;20047;-53
2022/01/19 02:03:28;;;;;;;3.92;2.00;;;;;;;15.96;61.21;100232.94;3176872;27;20051;-50
2022/01/19 02:05:03;;;;;;;2.65;1.90;;;;;;;15.96;61.08;100235.59;3174694;27;20676;-52
2022/01/19 02:06:50;;;;;;;2.17;1.60;;;;;;;15.93;61.07;100231.41;3173674;27;20417;-52
2022/01/19 02:08:23;;;;;;;2.92;2.47;;;;;;;15.94;61.13;100227.75;3175886;27;20039;-50
2022/01/19 02:10:02;;;;;;;2.30;1.90;;;;;;;15.92;61.31;100223.53;3176185;27;20047;-52
2022/01/19 02:22:35;;;;;;;2.42;1.98;;;;;;;15.82;61.43;100208.38;3173923;28;20047;-52
2022/01/19 02:24:11;;;;;;;2.78;2.03;;;;;;;15.82;61.29;100200.34;3176747;27;20062;-52
2022/01/19 02:25:45;;;;;;;2.72;1.83;;;;;;;15.81;61.30;100208.50;3175163;27;20638;-53
2022/01/19 02:29:20;;;;;;;2.10;1.90;;;;;;;15.78;61.29;100196.25;3175938;27;20058;-50
2022/01/19 02:40:09;;;;;;;2.38;2.05;;;;;;;15.74;61.30;100194.88;3176804;27;20043;-50
2022/01/19 02:40:36;;;;;;;2.80;2.17;;;;;;;15.72;61.40;100188.00;3173017;27;20039;-49
2022/01/19 02:42:13;;;;;;;2.30;1.85;;;;;;;15.71;61.50;100186.28;3176404;27;20050;-52
2022/01/19 02:43:49;;;;;;;3.17;2.10;;;;;;;15.69;61.49;100188.28;3176662;27;20047;-49
2022/01/19 02:49:14;;;;;;;2.10;1.58;;;;;;;15.67;61.36;100172.34;3174840;27;20048;-49
2022/01/19 02:50:45;;;;;;;2.78;2.30;;;;;;;15.65;61.37;100174.31;3169713;27;20044;-51
2022/01/19 02:52:20;;;;;;;2.33;2.10;;;;;;;15.66;61.37;100176.00;3175123;27;20043;-50
2022/01/19 02:53:54;;;;;;;2.75;2.25;;;;;;;15.64;61.47;100169.97;3175265;27;20650;-53
2022/01/19 02:55:29;;;;;;;2.05;1.80;;;;;;;15.63;61.38;100173.63;3174323;27;20047;-49
2022/01/19 02:57:02;;;;;;;3.17;2.10;;;;;;;15.61;61.48;100165.75;3177394;27;20465;-49
2022/01/19 02:58:45;;;;;;;3.03;2.13;;;;;;;15.60;61.49;100173.91;3176803;27;20066;-52
2022/01/19 03:09:29;;;;;;;2.95;2.13;;;;;;;15.56;61.42;100170.69;3176330;27;20047;-51
2022/01/19 03:11:05;;;;;;;2.90;2.05;;;;;;;15.56;61.45;100175.19;3176547;27;20046;-52
2022/01/19 03:12:42;;;;;;;3.30;1.98;;;;;;;15.53;61.42;100170.16;3176744;27;20039;-51
2022/01/19 03:14:14;;;;;;;1.85;1.75;;;;;;;15.54;61.46;100174.50;3176251;27;20043;-51
2022/01/19 03:15:45;;;;;;;2.40;1.80;;;;;;;15.52;61.50;100168.47;3174635;27;20107;-50
2022/01/19 03:17:16;;;;;;;2.88;1.73;;;;;;;15.51;61.41;100172.13;3176890;27;20051;-53
2022/01/19 03:18:51;;;;;;;2.13;1.90;;;;;;;15.50;61.39;100168.59;3177142;27;20103;-52
2022/01/19 03:20:23;;;;;;;3.03;2.10;;;;;;;15.48;61.53;100169.75;3178333;27;20107;-49
2022/01/19 03:21:55;;;;;;;1.75;1.52;;;;;;;15.48;61.48;100175.94;3178027;27;20059;-49
2022/01/19 03:23:28;;;;;;;2.08;1.83;;;;;;;15.47;61.65;100166.22;3176628;27;20047;-51
2022/01/19 03:25:00;;;;;;;2.13;1.70;;;;;;;15.47;61.57;100166.22;3175611;27;20051;-50
2022/01/19 03:26:35;;;;;;;3.25;2.17;;;;;;;15.45;61.59;100170.88;3178085;27;20126;-52
2022/01/19 03:28:07;;;;;;;2.60;2.03;;;;;;;15.45;61.48;100172.72;3177813;27;20115;-50
2022/01/19 03:29:39;;;;;;;3.15;1.48;;;;;;;15.42;61.52;100166.66;3179642;27;20050;-49
2022/01/19 03:31:13;;;;;;;2.58;2.17;;;;;;;15.44;61.51;100173.72;3176313;27;20050;-49
2022/01/19 03:32:46;;;;;;;2.95;1.95;;;;;;;15.41;61.56;100181.03;3174674;27;20050;-53
2022/01/19 03:34:17;;;;;;;3.63;2.40;;;;;;;15.39;61.57;100177.63;3175613;27;20047;-48
2022/01/19 03:35:48;;;;;;;2.20;2.00;;;;;;;15.40;61.56;100176.63;3176493;27;20050;-50
2022/01/19 03:37:23;;;;;;;2.17;1.80;;;;;;;15.39;61.59;100180.31;3175368;27;20572;-52
2022/01/19 03:38:56;;;;;;;2.95;1.90;;;;;;;15.40;61.62;100175.81;3179440;27;20284;-49
2022/01/19 03:40:27;;;;;;;3.15;2.00;;;;;;;15.41;61.52;100178.34;3178604;27;20709;-50
2022/01/19 03:42:01;;;;;;;2.08;1.60;;;;;;;15.42;61.69;100176.50;3178768;27;20058;-49
2022/01/19 03:43:33;;;;;;;2.30;1.95;;;;;;;15.43;61.55;100175.50;3175221;27;20035;-51
2022/01/19 03:45:08;;;;;;;2.88;2.30;;;;;;;15.44;61.62;100171.03;3177073;27;20073;-52
2022/01/19 03:46:54;;;;;;;2.25;1.80;;;;;;;15.44;61.60;100168.34;3179698;27;20039;-52
2022/01/19 03:48:43;;;;;;;2.60;2.00;;;;;;;15.44;61.63;100160.34;3175695;27;20120;-52
2022/01/19 03:50:15;;;;;;;1.90;1.70;;;;;;;15.44;61.54;100163.84;3175713;27;20074;-53
2022/01/19 03:51:46;;;;;;;2.40;2.08;;;;;;;15.46;61.47;100156.53;3175452;27;20054;-48
2022/01/19 03:53:18;;;;;;;3.65;1.90;;;;;;;15.45;61.63;100162.84;3175939;27;20044;-48
2022/01/19 03:54:54;;;;;;;3.25;2.08;;;;;;;15.45;61.55;100164.69;3177887;27;20072;-52
2022/01/19 03:56:25;;;;;;;3.40;2.50;;;;;;;15.45;61.51;100164.69;3177733;27;20618;-50
2022/01/19 03:57:57;;;;;;;3.05;1.92;;;;;;;15.44;61.50;100160.34;3177076;27;20497;-52
2022/01/19 03:59:32;;;;;;;3.28;2.00;;;;;;;15.44;61.50;100155.00;3178122;27;20047;-50
2022/01/19 04:01:05;;;;;;;2.10;1.77;;;;;;;15.44;61.45;100153.16;3175667;27;20050;-52
2022/01/19 04:02:37;;;;;;;3.38;1.95;;;;;;;15.45;61.57;100162.00;3177896;27;20035;-52
2022/01/19 04:04:29;;;;;;;1.90;1.60;;;;;;;15.42;61.38;100158.63;3173459;27;20493;-50
2022/01/19 04:06:07;;;;;;;2.20;1.70;;;;;;;15.42;61.56;100166.66;3175557;27;20047;-51
2022/01/19 04:07:41;;;;;;;3.03;1.73;;;;;;;15.42;61.65;100161.31;3177915;27;20057;-50
2022/01/19 04:09:14;;;;;;;2.35;1.70;;;;;;;15.42;61.72;100161.31;3177629;27;20051;-52
2022/01/19 04:10:47;;;;;;;2.00;1.60;;;;;;;15.41;61.57;100166.81;3175444;27;20059;-50
2022/01/19 04:12:31;;;;;;;3.28;1.88;;;;;;;15.40;61.53;100163.28;3177576;27;20046;-52
2022/01/19 04:15:49;;;;;;;2.00;1.80;;;;;;;15.40;61.66;100165.13;3178122;27;20039;-49
2022/01/19 04:17:24;;;;;;;2.10;1.65;;;;;;;15.40;61.49;100159.75;3178668;27;20512;-52
2022/01/19 04:19:05;;;;;;;2.38;1.92;;;;;;;15.41;61.49;100164.16;3174712;27;20096;-48
2022/01/19 04:20:41;;;;;;;3.75;1.60;;;;;;;15.40;61.50;100165.94;3178623;27;20129;-50
2022/01/19 04:22:18;;;;;;;2.20;1.58;;;;;;;15.39;61.57;100164.28;3176251;27;20549;-50
2022/01/19 04:23:56;;;;;;;2.60;2.38;;;;;;;15.39;61.50;100163.44;3176610;27;20051;-50
2022/01/19 04:25:28;;;;;;;2.38;2.10;;;;;;;15.39;61.63;100164.28;3172363;27;20062;-51
2022/01/19 04:28:51;;;;;;;1.58;1.48;;;;;;;15.39;61.33;100166.94;3176327;27;20378;-52
2022/01/19 04:30:27;;;;;;;3.33;2.17;;;;;;;15.37;61.45;100162.72;3176753;27;20684;-51
2022/01/19 04:32:01;;;;;;;2.65;2.03;;;;;;;15.36;61.41;100161.91;3178003;27;20131;-49
2022/01/19 04:33:33;;;;;;;2.33;1.80;;;;;;;15.36;61.50;100161.06;3175655;27;20191;-49
2022/01/19 04:35:10;;;;;;;2.47;2.05;;;;;;;15.35;61.50;100162.91;3176032;27;20047;-50
2022/01/19 04:37:10;;;;;;;2.30;2.00;;;;;;;15.34;61.48;100169.22;3178581;27;20054;-53
2022/01/19 04:44:34;;;;;;;2.67;2.00;;;;;;;15.32;61.56;100168.53;3172288;27;20043;-51
2022/01/19 04:46:25;;;;;;;1.55;1.42;;;;;;;15.31;61.58;100166.81;3175950;27;20043;-52
2022/01/19 05:01:45;;;;;;;2.08;1.63;;;;;;;15.27;61.60;100173.47;3146967;28;20093;-52
2022/01/19 05:03:37;;;;;;;2.47;1.70;;;;;;;15.26;61.57;100162.91;3172114;27;20548;-53
2022/01/19 05:05:15;;;;;;;2.58;1.83;;;;;;;15.25;61.37;100167.41;3174737;27;20068;-52
2022/01/19 05:06:51;;;;;;;2.42;1.80;;;;;;;15.27;61.63;100175.31;3177802;27;20062;-52
2022/01/19 05:08:44;;;;;;;2.10;1.73;;;;;;;15.27;61.45;100170.78;3177179;27;20043;-51
2022/01/19 05:14:01;;;;;;;2.00;1.80;;;;;;;15.46;61.42;100164.56;3176826;27;20086;-50
2022/01/19 05:15:34;;;;;;;2.00;1.77;;;;;;;15.54;61.39;100163.81;3176799;27;20046;-52
2022/01/19 05:17:06;;;;;;;3.45;2.38;;;;;;;15.59;61.10;100165.03;3177722;27;20050;-53
2022/01/19 05:18:41;;;;;;;2.97;2.17;;;;;;;15.65;61.30;100163.63;3177521;27;20039;-50
2022/01/19 05:20:18;;;;;;;2.08;1.70;;;;;;;15.72;61.09;100166.59;3175881;27;20047;-54
2022/01/19 05:21:49;;;;;;;2.20;2.00;;;;;;;15.77;61.00;100169.69;3175881;27;20054;-52
2022/01/19 05:23:20;;;;;;;2.00;1.80;;;;;;;15.82;60.96;100170.03;3178145;27;20039;-52
2022/01/19 05:24:54;;;;;;;2.40;2.20;;;;;;;15.88;60.93;100166.81;3178036;27;20103;-53
2022/01/19 05:26:26;;;;;;;3.03;2.15;;;;;;;15.92;60.81;100164.66;3178631;27;20050;-51
2022/01/19 05:27:58;;;;;;;2.10;1.70;;;;;;;15.97;60.53;100168.56;3177991;27;20058;-53
2022/01/19 05:29:30;;;;;;;1.75;1.65;;;;;;;16.02;60.68;100160.94;3176196;27;20047;-53
2022/01/19 05:31:05;;;;;;;2.45;1.60;;;;;;;16.08;60.68;100163.03;3176036;27;20039;-52
2022/01/19 05:32:37;;;;;;;2.22;1.92;;;;;;;16.13;60.50;100151.00;3178700;27;20489;-52
2022/01/19 05:34:11;;;;;;;2.05;1.60;;;;;;;16.19;60.55;100161.13;3177103;27;20111;-54
2022/01/19 05:35:43;;;;;;;2.58;2.03;;;;;;;16.23;60.51;100157.16;3176032;27;20054;-52
2022/01/19 05:37:17;;;;;;;1.85;1.70;;;;;;;16.27;60.41;100148.69;3176653;27;20058;-48
2022/01/19 05:38:50;;;;;;;2.50;1.95;;;;;;;16.30;60.25;100148.38;3176480;27;20047;-54
2022/01/19 05:40:21;;;;;;;2.88;1.70;;;;;;;16.35;60.31;100147.06;3176727;27;20051;-48
2022/01/19 05:41:55;;;;;;;1.90;1.60;;;;;;;16.39;60.28;100153.81;3176621;27;20050;-53
2022/01/19 05:43:27;;;;;;;3.08;1.58;;;;;;;16.42;60.15;100158.84;3176659;27;20046;-53
2022/01/19 05:44:58;;;;;;;2.22;1.40;;;;;;;16.44;60.07;100155.03;3177433;27;20055;-51
2022/01/19 05:46:40;;;;;;;2.10;1.90;;;;;;;16.50;60.07;100164.28;3176715;27;20035;-48
2022/01/19 05:48:12;;;;;;;2.20;1.73;;;;;;;16.51;59.94;100155.25;3177166;27;20051;-53
2022/01/19 05:49:46;;;;;;;2.33;1.60;;;;;;;16.55;59.90;100159.31;3178027;27;20061;-53
2022/01/19 05:51:18;;;;;;;1.83;1.67;;;;;;;16.57;59.99;100160.00;3175531;27;20657;-51
2022/01/19 05:52:55;;;;;;;1.65;1.25;;;;;;;16.62;59.88;100157.69;3176446;27;20577;-52
2022/01/19 05:54:27;;;;;;;1.65;1.35;;;;;;;16.63;59.66;100154.03;3177557;27;20039;-50
2022/01/19 05:55:59;;;;;;;1.77;1.65;;;;;;;16.67;59.79;100155.41;3175758;27;20047;-50
2022/01/19 05:57:32;;;;;;;2.05;1.83;;;;;;;16.69;59.74;100152.59;3178470;27;20039;-51
2022/01/19 05:59:04;;;;;;;2.28;1.50;;;;;;;16.71;59.71;100150.56;3173648;27;20043;-50
2022/01/19 06:00:36;;;;;;;1.67;1.40;;;;;;;16.73;59.65;100154.78;3171144;27;20152;-50
2022/01/19 06:02:11;;;;;;;2.30;1.75;;;;;;;16.75;59.69;100155.47;3171309;27;20058;-52
2022/01/19 06:03:43;;;;;;;2.53;2.05;;;;;;;16.77;59.51;100154.50;3178001;27;20697;-50
2022/01/19 06:05:15;;;;;;;3.40;2.00;;;;;;;16.76;59.77;100156.31;3173410;27;20043;-54
2022/01/19 06:06:49;;;;;;;2.67;2.08;;;;;;;16.78;59.55;100151.69;3177204;27;20043;-51
2022/01/19 06:08:40;;;;;;;2.28;1.83;;;;;;;16.80;59.63;100143.47;3177095;27;20128;-54
2022/01/19 06:10:42;;;;;;;3.15;2.15;;;;;;;16.80;59.49;100148.84;3172865;27;20055;-51
2022/01/19 06:12:08;;;;;;;1.60;1.42;;;;;;;16.83;59.52;100153.91;3169441;27;20786;-53
2022/01/19 06:13:40;;;;;;;1.88;1.50;;;;;;;16.83;59.43;100152.06;3177023;27;20047;-53
2022/01/19 06:15:31;;;;;;;2.30;1.60;;;;;;;16.84;59.54;100158.25;3173955;27;20054;-51
2022/01/19 06:17:04;;;;;;;2.90;1.95;;;;;;;16.85;59.45;100154.56;3175625;27;20050;-48
2022/01/19 06:18:42;;;;;;;2.95;1.80;;;;;;;16.86;59.43;100159.78;3176910;27;20043;-53
2022/01/19 06:20:14;;;;;;;1.58;1.35;;;;;;;16.87;59.33;100152.59;3176723;27;20525;-52
2022/01/19 06:21:46;;;;;;;1.70;1.48;;;;;;;16.86;59.41;100158.97;3173911;27;20043;-52
2022/01/19 06:23:24;;;;;;;1.58;1.48;;;;;;;16.86;59.33;100153.59;3176499;27;20743;-49
2022/01/19 06:24:57;;;;;;;1.95;1.40;;;;;;;16.87;59.42;100160.63;3177102;27;20043;-49
2022/01/19 06:26:30;;;;;;;1.55;1.33;;;;;;;16.87;59.42;100157.94;3177690;27;20051;-51
2022/01/19 06:28:03;;;;;;;1.85;1.70;;;;;;;16.87;59.25;100157.94;3175904;27;20115;-53
2022/01/19 06:29:38;;;;;;;2.42;2.22;;;;;;;16.86;59.44;100151.75;3169043;27;20050;-50
2022/01/19 06:31:12;;;;;;;2.22;1.88;;;;;;;16.87;59.33;100160.63;3174341;27;20051;-52
2022/01/19 06:32:44;;;;;;;2.35;1.60;;;;;;;16.86;59.57;100157.13;3172811;27;20046;-51
2022/01/19 06:34:17;;;;;;;1.83;1.60;;;;;;;16.87;59.39;100163.31;3170581;27;20047;-52
2022/01/19 06:35:49;;;;;;;2.20;1.73;;;;;;;16.86;59.30;100159.78;3172768;27;20413;-51
2022/01/19 06:37:21;;;;;;;2.83;2.00;;;;;;;16.86;59.33;100161.63;3170910;27;20111;-54
2022/01/19 06:38:53;;;;;;;1.48;1.23;;;;;;;16.88;59.29;100170.34;3168620;27;20581;-55
2022/01/19 06:40:27;;;;;;;1.90;1.52;;;;;;;16.85;59.44;100167.97;3173642;27;20833;-53
2022/01/19 06:41:59;;;;;;;1.30;1.20;;;;;;;16.85;59.42;100167.97;3176006;27;20039;-55
2022/01/19 06:43:31;;;;;;;1.50;1.40;;;;;;;16.85;59.39;100160.78;3173239;27;20541;-51
2022/01/19 06:45:03;;;;;;;2.28;1.63;;;;;;;16.83;59.36;100159.28;3172395;27;20567;-52
2022/01/19 06:46:35;;;;;;;1.90;1.65;;;;;;;16.83;59.45;100151.22;3172961;27;20091;-55
2022/01/19 06:48:10;;;;;;;2.17;1.63;;;;;;;16.81;59.37;100162.09;3175890;27;20055;-55
2022/01/19 06:49:44;;;;;;;2.58;1.75;;;;;;;16.80;59.38;100159.56;3172869;27;20552;-48
2022/01/19 06:51:15;;;;;;;2.30;1.63;;;;;;;16.81;59.39;100164.78;3171170;27;20513;-54
2022/01/19 06:52:49;;;;;;;2.17;1.73;;;;;;;16.81;59.36;100166.63;3178652;27;20048;-53
2022/01/19 06:54:20;;;;;;;1.77;1.52;;;;;;;16.80;59.42;100164.91;3177057;27;20047;-52
2022/01/19 06:55:54;;;;;;;2.03;1.77;;;;;;;16.80;59.48;100170.28;3180646;27;20047;-54
2022/01/19 06:57:26;;;;;;;2.22;1.65;;;;;;;16.80;59.46;100168.47;3177249;27;20100;-55
2022/01/19 06:58:59;;;;;;;2.58;1.73;;;;;;;16.78;59.50;100173.13;3176043;27;20717;-51
2022/01/19 07:00:31;;;;;;;2.70;2.10;;;;;;;16.78;59.45;100172.28;3171601;27;20591;-51
2022/01/19 07:02:04;;;;;;;2.67;1.50;;;;;;;16.75;59.57;100165.38;3172734;27;20047;-52
2022/01/19 07:03:37;;;;;;;1.95;1.73;;;;;;;16.75;59.50;100174.22;3174163;27;20062;-52
2022/01/19 07:05:11;;;;;;;1.33;1.23;;;;;;;16.73;59.46;100165.50;3177789;27;20047;-53
2022/01/19 07:06:43;;;;;;;1.50;1.40;;;;;;;16.75;59.52;100170.72;3176559;27;20578;-55
2022/01/19 07:08:16;;;;;;;1.70;1.58;;;;;;;16.74;59.51;100171.69;3177011;27;20047;-52
2022/01/19 07:09:49;;;;;;;2.30;1.33;;;;;;;16.74;59.51;100169.00;3177970;27;20047;-59
2022/01/19 07:11:21;;;;;;;2.13;1.63;;;;;;;16.74;59.58;100163.66;3175248;27;21158;-54
2022/01/19 07:12:53;;;;;;;2.47;2.17;;;;;;;16.74;59.63;100166.34;3168975;27;20060;-54
2022/01/19 07:14:25;;;;;;;1.20;1.10;;;;;;;16.73;59.62;100165.50;3173641;27;20921;-54
2022/01/19 07:15:57;;;;;;;2.17;1.48;;;;;;;16.73;59.45;100165.50;3172993;27;20055;-50
2022/01/19 07:17:30;;;;;;;2.17;1.77;;;;;;;16.75;59.60;100165.38;3170358;27;20139;-52
2022/01/19 07:19:02;;;;;;;1.80;1.55;;;;;;;16.74;59.36;100158.28;3170814;27;20047;-55
2022/01/19 07:20:38;;;;;;;1.42;1.33;;;;;;;16.75;59.52;100152.81;3174903;27;20039;-55
2022/01/19 07:22:15;;;;;;;1.92;1.40;;;;;;;16.76;59.50;100156.31;3174368;27;20046;-54
2022/01/19 07:23:47;;;;;;;1.83;1.50;;;;;;;16.77;59.55;100154.50;3177253;27;20039;-51
2022/01/19 07:25:21;;;;;;;1.25;1.05;;;;;;;16.78;59.49;100145.50;3176001;27;20059;-50
2022/01/19 07:26:52;;;;;;;2.05;1.80;;;;;;;16.79;59.58;100144.47;3179376;27;20416;-51
2022/01/19 07:28:24;;;;;;;1.92;1.63;;;;;;;16.78;59.47;100146.31;3172298;27;20523;-52
2022/01/19 07:29:56;;;;;;;1.63;1.35;;;;;;;16.79;59.56;100145.31;3175335;27;20051;-52
2022/01/19 07:31:28;;;;;;;1.85;1.70;;;;;;;16.80;59.50;100146.16;3175917;27;20055;-55
2022/01/19 07:33:02;;;;;;;1.85;1.40;;;;;;;16.83;59.58;100151.22;3177129;27;20051;-50
2022/01/19 07:34:34;;;;;;;1.70;1.38;;;;;;;16.86;59.42;100150.91;3173326;27;20043;-52
2022/01/19 07:36:07;;;;;;;2.42;1.58;;;;;;;16.86;59.39;100148.25;3176191;27;20047;-52
2022/01/19 07:37:39;;;;;;;1.50;1.35;;;;;;;16.87;59.56;100150.75;3174729;27;21227;-52
2022/01/19 07:39:14;;;;;;;1.42;1.13;;;;;;;16.88;59.55;100146.22;3164711;27;20068;-53
2022/01/19 07:40:50;;;;;;;2.63;1.67;;;;;;;16.88;59.55;100155.13;3170828;27;20088;-51
2022/01/19 07:42:22;;;;;;;2.13;1.58;;;;;;;16.89;59.41;100161.31;3174840;27;20088;-53
2022/01/19 07:43:54;;;;;;;2.13;1.73;;;;;;;16.89;59.50;100155.97;3175681;27;20035;-53
2022/01/19 07:45:26;;;;;;;2.05;1.85;;;;;;;16.90;59.53;100160.31;3172826;27;20054;-50
2022/01/19 07:47:00;;;;;;;1.10;1.00;;;;;;;16.89;59.46;100158.66;3172770;27;20043;-50
2022/01/19 07:48:32;;;;;;;1.30;1.08;;;;;;;16.89;59.45;100161.31;3178222;27;20058;-51
2022/01/19 07:50:06;;;;;;;1.73;1.10;;;;;;;16.90;59.48;100160.31;3176483;27;20039;-49
2022/01/19 07:51:39;;;;;;;3.50;1.70;;;;;;;16.90;59.49;100158.47;3175768;27;20664;-54
2022/01/19 07:53:11;;;;;;;1.20;1.10;;;;;;;16.90;59.39;100165.69;3172976;27;20096;-52
2022/01/19 07:54:45;;;;;;;1.88;1.30;;;;;;;16.89;59.36;100161.31;3174204;27;20556;-53
2022/01/19 07:56:19;;;;;;;3.55;1.80;;;;;;;16.90;59.39;100160.31;3170142;27;20987;-53
2022/01/19 07:57:51;;;;;;;2.67;1.38;;;;;;;16.90;59.41;100168.34;3176402;27;20058;-53
2022/01/19 07:59:23;;;;;;;3.42;1.20;;;;;;;16.89;59.41;100164.00;3177244;27;20066;-52
2022/01/19 08:00:55;;;;;;;3.05;1.33;;;;;;;16.88;59.49;100168.53;3176062;27;20040;-51
2022/01/19 08:02:33;;;;;;;2.03;1.50;;;;;;;16.89;59.46;100169.38;3177583;27;20051;-52
2022/01/19 08:04:04;;;;;;;1.98;1.48;;;;;;;16.87;59.47;100164.16;3172022;27;20073;-52
2022/01/19 08:05:42;;;;;;;1.75;1.17;;;;;;;16.88;59.50;100173.03;3172162;27;20058;-54
2022/01/19 08:07:15;;;;;;;4.35;1.27;;;;;;;16.87;59.39;100166.00;3171260;27;20075;-51
2022/01/19 08:08:50;;;;;;;2.10;1.45;;;;;;;16.86;59.48;100158.97;3174774;27;20047;-54
2022/01/19 08:10:22;;;;;;;1.58;1.48;;;;;;;16.84;59.49;100158.25;3171888;27;22039;-52
2022/01/19 08:11:55;;;;;;;2.35;1.42;;;;;;;16.83;59.41;100165.47;3172242;27;20043;-51
2022/01/19 08:13:27;;;;;;;1.30;1.17;;;;;;;16.80;59.58;100157.75;3172866;27;20066;-54
2022/01/19 08:15:02;;;;;;;1.95;1.40;;;;;;;16.81;59.60;100166.63;3175211;27;20050;-53
2022/01/19 08:16:34;;;;;;;1.85;1.30;;;;;;;16.78;59.61;100167.75;3173044;27;20096;-51
2022/01/19 08:18:05;;;;;;;1.73;1.63;;;;;;;16.79;59.58;100161.41;3173876;27;20051;-54
2022/01/19 08:19:37;;;;;;;1.65;1.40;;;;;;;16.79;59.57;100164.06;3174333;27;20047;-53
2022/01/19 08:21:09;;;;;;;1.33;1.10;;;;;;;16.77;59.56;100160.72;3172196;27;20038;-53
2022/01/19 08:22:42;;;;;;;2.38;1.73;;;;;;;16.75;59.70;100165.38;3174198;27;20043;-50
2022/01/19 08:24:15;;;;;;;1.48;1.35;;;;;;;16.73;59.69;100154.78;3171687;27;20050;-55
2022/01/19 08:25:47;;;;;;;1.35;1.23;;;;;;;16.71;59.66;100156.75;3174165;27;20053;-52